Time;durP1;ratioP1;P1;durP2;ratioP2;P2;SDS_P1;SDS_P2;PMS_P1;PMS_P2;Temp;Humidity;BMP_temperature;BMP_pressure;BME280_temperature;BME280_humidity;BME280_pressure;Samples;Min_cycle;Max_cycle;Signal;HPM_P1;HPM_P2
2021/05/18 00:01:16;;;;;;;2.80;1.30;;;307.20;2304.00;;;;;;4803070;29;20038;-64
2021/05/18 00:03:41;;;;;;;2.80;1.40;;;307.20;2304.00;;;;;;4841172;29;20121;-65
2021/05/18 00:06:07;;;;;;;2.50;1.30;;;282.50;2278.40;;;;;;4879268;29;20029;-60
2021/05/18 00:11:42;;;;;;;4.93;1.50;;;282.50;2278.40;;;;;;4879034;29;20503;-62
2021/05/18 00:14:03;;;;;;;3.08;1.52;;;282.40;2278.40;;;;;;4878495;29;20055;-63
2021/05/18 00:16:29;;;;;;;3.58;1.48;;;282.40;2278.40;;;;;;4878849;29;20085;-63
2021/05/18 00:18:55;;;;;;;3.40;1.50;;;282.40;2278.40;;;;;;4878799;29;20025;-62
2021/05/18 00:21:21;;;;;;;4.65;1.40;;;282.40;2278.40;;;;;;4878415;29;20049;-63
2021/05/18 00:23:46;;;;;;;3.58;1.60;;;282.40;2278.40;;;;;;4877812;29;20112;-62
2021/05/18 00:26:12;;;;;;;4.30;1.63;;;282.40;2278.40;;;;;;4878484;29;20032;-63
2021/05/18 00:28:38;;;;;;;2.47;1.50;;;282.40;2278.40;;;;;;4878713;29;20021;-61
2021/05/18 00:31:04;;;;;;;3.22;1.55;;;282.40;2278.40;;;;;;4878580;29;20025;-63
2021/05/18 00:33:30;;;;;;;4.45;1.63;;;282.40;2278.40;;;;;;4878663;29;20035;-61
2021/05/18 00:35:56;;;;;;;5.00;1.50;;;282.40;2278.40;;;;;;4878552;29;20112;-61
2021/05/18 00:38:22;;;;;;;4.97;1.65;;;282.40;2278.40;;;;;;4878061;29;20029;-61
2021/05/18 00:40:49;;;;;;;2.78;1.50;;;282.40;2278.40;;;;;;4877966;29;20131;-61
2021/05/18 00:43:15;;;;;;;2.60;1.50;;;282.40;2278.40;;;;;;4878525;29;20116;-60
2021/05/18 00:45:47;;;;;;;4.65;1.60;;;282.40;2278.40;;;;;;4878701;29;20131;-61
2021/05/18 00:48:14;;;;;;;5.20;1.70;;;282.40;2278.40;;;;;;4876760;29;20036;-61
2021/05/18 00:50:44;;;;;;;6.35;1.48;;;282.30;2278.40;;;;;;4878338;29;20028;-62
2021/05/18 00:53:10;;;;;;;2.90;1.70;;;282.30;2278.40;;;;;;4876175;29;20036;-60
2021/05/18 01:00:49;;;;;;;3.40;1.65;;;282.20;2278.40;;;;;;4875976;29;20048;-60
2021/05/18 01:03:15;;;;;;;4.68;1.70;;;282.20;2278.40;;;;;;4878285;29;20025;-61
2021/05/18 01:08:25;;;;;;;2.83;1.35;;;282.10;2278.40;;;;;;4877735;29;20051;-61
2021/05/18 01:10:51;;;;;;;2.65;1.33;;;282.00;2278.40;;;;;;4878291;29;20029;-62
2021/05/18 01:13:17;;;;;;;3.90;1.45;;;282.00;2278.40;;;;;;4878131;29;20382;-62
2021/05/18 01:15:43;;;;;;;4.18;1.55;;;282.00;2278.40;;;;;;4878082;29;20347;-60
2021/05/18 01:18:09;;;;;;;4.95;1.45;;;282.00;2278.40;;;;;;4877887;29;20047;-59
2021/05/18 01:20:52;;;;;;;3.10;1.40;;;281.90;2278.40;;;;;;4877659;29;20048;-60
2021/05/18 01:23:18;;;;;;;2.58;1.15;;;281.90;2278.40;;;;;;4876937;29;20427;-60
2021/05/18 01:25:43;;;;;;;3.40;1.20;;;281.80;2278.40;;;;;;4877870;29;20123;-60
2021/05/18 01:28:09;;;;;;;3.25;1.33;;;281.90;2278.40;;;;;;4877857;29;20128;-59
2021/05/18 01:30:35;;;;;;;2.97;1.15;;;281.90;2278.40;;;;;;4878026;29;20072;-59
2021/05/18 01:33:00;;;;;;;4.20;1.30;;;281.90;2278.40;;;;;;4877545;29;20033;-59
2021/05/18 01:35:29;;;;;;;3.28;1.17;;;281.90;2278.40;;;;;;4879034;29;20408;-62
2021/05/18 01:37:55;;;;;;;2.70;1.20;;;281.90;2278.40;;;;;;4881835;29;20044;-60
2021/05/18 01:42:57;;;;;;;3.05;1.10;;;281.90;2278.40;;;;;;4881719;29;20071;-61
2021/05/18 01:45:29;;;;;;;2.17;1.30;;;281.90;2278.40;;;;;;4881577;29;20037;-62
2021/05/18 01:47:58;;;;;;;1.50;0.98;;;281.90;2278.40;;;;;;4881394;29;20101;-62
2021/05/18 01:50:26;;;;;;;3.08;1.00;;;281.90;2278.40;;;;;;4881563;29;20527;-65
2021/05/18 01:52:53;;;;;;;1.60;1.00;;;281.80;2278.40;;;;;;4881552;29;20140;-62
2021/05/18 01:57:54;;;;;;;3.10;1.05;;;281.80;2278.40;;;;;;4881420;29;20025;-61
2021/05/18 02:00:26;;;;;;;3.22;1.10;;;281.80;2278.40;;;;;;4881632;29;20084;-61
2021/05/18 02:02:53;;;;;;;2.80;1.15;;;281.80;2278.40;;;;;;4881256;29;20029;-66
2021/05/18 02:05:22;;;;;;;3.25;1.10;;;281.80;2278.40;;;;;;4881855;29;20029;-64
2021/05/18 02:07:50;;;;;;;4.68;1.27;;;281.80;2278.40;;;;;;4882406;29;20021;-63
2021/05/18 02:10:19;;;;;;;3.28;1.10;;;281.70;2278.40;;;;;;4899781;29;20040;-62
2021/05/18 02:12:45;;;;;;;2.53;1.00;;;281.70;2278.40;;;;;;4899955;29;20028;-64
2021/05/18 02:26:21;;;;;;;4.20;1.10;;;281.60;2278.40;;;;;;4832216;29;20074;-63
2021/05/18 02:28:47;;;;;;;4.57;1.00;;;281.60;2278.40;;;;;;4832065;29;20022;-63
2021/05/18 02:31:13;;;;;;;1.80;0.95;;;281.60;2278.40;;;;;;4833298;29;20136;-62
2021/05/18 02:33:39;;;;;;;2.85;1.00;;;281.60;2278.40;;;;;;4829283;29;20031;-65
2021/05/18 02:36:06;;;;;;;2.65;0.95;;;281.60;2278.40;;;;;;4832507;29;20069;-63
2021/05/18 02:38:32;;;;;;;1.63;0.93;;;281.60;2278.40;;;;;;4833084;29;20501;-64
2021/05/18 02:40:58;;;;;;;2.03;1.00;;;281.60;2278.40;;;;;;4819692;29;20054;-64
2021/05/18 02:43:32;;;;;;;2.22;1.00;;;281.60;2278.40;;;;;;4832441;29;20032;-63
2021/05/18 02:46:20;;;;;;;4.57;0.90;;;256.90;2252.80;;;;;;4833070;29;20057;-63
2021/05/18 02:51:31;;;;;;;3.10;1.10;;;256.90;2252.80;;;;;;4832355;29;20193;-63
2021/05/18 02:53:56;;;;;;;4.80;1.10;;;256.90;2252.80;;;;;;4830622;29;20054;-64
2021/05/18 02:58:59;;;;;;;3.85;1.15;;;256.90;2252.80;;;;;;4898151;29;20076;-63
2021/05/18 03:01:25;;;;;;;3.80;1.00;;;256.90;2252.80;;;;;;4897256;29;20064;-64
2021/05/18 03:03:52;;;;;;;2.75;1.00;;;256.90;2252.80;;;;;;4899258;29;20025;-63
2021/05/18 03:06:18;;;;;;;3.40;1.52;;;256.90;2252.80;;;;;;4898608;29;20047;-62
2021/05/18 03:08:44;;;;;;;2.67;1.00;;;256.80;2252.80;;;;;;4898547;29;20499;-63
2021/05/18 03:11:11;;;;;;;2.20;0.93;;;256.90;2252.80;;;;;;4897578;29;20029;-63
2021/05/18 03:13:37;;;;;;;1.58;1.00;;;256.90;2252.80;;;;;;4896497;29;20036;-62
2021/05/18 03:16:03;;;;;;;3.53;1.10;;;256.90;2252.80;;;;;;4898637;29;20043;-63
2021/05/18 03:18:29;;;;;;;5.40;1.10;;;256.90;2252.80;;;;;;4898531;29;20020;-63
2021/05/18 03:20:55;;;;;;;1.95;0.98;;;256.90;2252.80;;;;;;4898969;29;20049;-63
2021/05/18 03:23:21;;;;;;;2.75;1.23;;;281.60;2278.40;;;;;;4898017;29;20485;-63
2021/05/18 03:25:47;;;;;;;2.75;1.10;;;281.60;2278.40;;;;;;4898395;29;20032;-63
2021/05/18 03:28:12;;;;;;;4.97;1.10;;;281.60;2278.40;;;;;;4898203;29;20080;-64
2021/05/18 03:30:54;;;;;;;3.28;1.05;;;281.60;2278.40;;;;;;4898661;29;20032;-64
2021/05/18 03:36:05;;;;;;;4.03;1.13;;;256.90;2252.80;;;;;;4900442;29;20104;-63
2021/05/18 03:55:05;;;;;;;1.67;0.90;;;281.70;2278.40;;;;;;4793935;29;20878;-64
2021/05/18 04:50:51;;;;;;;2.22;1.00;;;307.20;2304.00;;;;;;4874047;29;20080;-63
2021/05/18 05:01:16;;;;;;;2.38;1.10;;;307.50;2304.00;;;;;;4877742;29;20051;-64
2021/05/18 05:06:23;;;;;;;2.60;0.90;;;307.70;2304.00;;;;;;4880286;29;20021;-65
2021/05/18 05:09:19;;;;;;;3.15;1.05;;;307.70;2304.00;;;;;;4879535;29;20538;-62
2021/05/18 05:14:29;;;;;;;2.15;0.90;;;307.70;2304.00;;;;;;4874261;29;20398;-64
2021/05/18 05:16:55;;;;;;;1.58;0.80;;;307.80;2304.00;;;;;;4875290;29;20029;-63
2021/05/18 05:19:26;;;;;;;1.45;0.88;;;307.90;2304.00;;;;;;4873438;29;20033;-61
2021/05/18 05:21:51;;;;;;;1.08;0.70;;;308.00;2304.00;;;;;;4875261;29;20073;-62
2021/05/18 05:24:17;;;;;;;2.40;0.80;;;308.10;2304.00;;;;;;4875991;29;20064;-64
2021/05/18 05:26:43;;;;;;;5.30;1.10;;;332.80;2329.60;;;;;;4876265;29;20109;-64
2021/05/18 05:29:09;;;;;;;1.50;1.00;;;332.90;2329.60;;;;;;4875823;29;20056;-65
2021/05/18 05:31:36;;;;;;;1.83;0.90;;;332.90;2329.60;;;;;;4876111;29;20048;-63
2021/05/18 05:34:02;;;;;;;1.75;1.00;;;333.10;2329.60;;;;;;4873988;29;20395;-61
2021/05/18 05:36:28;;;;;;;1.70;1.00;;;333.30;2329.60;;;;;;4875948;29;20044;-62
2021/05/18 05:39:02;;;;;;;3.17;1.20;;;333.40;2329.60;;;;;;4876565;29;20029;-62
2021/05/18 05:41:28;;;;;;;3.63;1.50;;;333.60;2329.60;;;;;;4874576;29;20511;-64
2021/05/18 05:43:54;;;;;;;2.95;1.55;;;333.60;2329.60;;;;;;4876882;29;20503;-64
2021/05/18 05:46:20;;;;;;;2.10;1.10;;;358.50;2329.60;;;;;;4876141;29;20054;-64
2021/05/18 05:48:52;;;;;;;3.80;1.20;;;358.50;2304.00;;;;;;4875946;29;20029;-65
2021/05/18 05:51:20;;;;;;;4.80;1.10;;;358.90;2304.00;;;;;;4874571;29;20021;-65
2021/05/18 05:53:46;;;;;;;2.83;1.00;;;358.90;2278.40;;;;;;4874103;29;20120;-66
2021/05/18 05:56:12;;;;;;;3.00;1.10;;;359.10;2252.80;;;;;;4873030;29;20060;-64
2021/05/18 05:58:38;;;;;;;3.28;1.10;;;384.00;2227.20;;;;;;4876087;29;20056;-63
2021/05/18 06:01:04;;;;;;;2.00;0.80;;;384.00;2176.00;;;;;;4874649;29;20073;-64
2021/05/18 06:03:30;;;;;;;4.28;0.98;;;359.20;2201.60;;;;;;4876283;29;20036;-62
2021/05/18 06:05:55;;;;;;;1.23;0.80;;;359.30;2201.60;;;;;;4875955;29;20032;-63
2021/05/18 06:08:21;;;;;;;2.17;1.02;;;384.00;2201.60;;;;;;4876194;29;20507;-65
2021/05/18 06:10:51;;;;;;;2.72;1.10;;;359.00;2227.20;;;;;;4875883;29;20112;-63
2021/05/18 06:48:08;;;;;;;2.40;1.00;;;384.30;2201.60;;;;;;4804115;29;20134;-72
2021/05/18 06:50:34;;;;;;;1.95;0.90;;;384.50;2124.80;;;;;;4805972;29;20402;-66
2021/05/18 06:53:00;;;;;;;2.25;0.90;;;384.70;2124.80;;;;;;4806552;29;20656;-62
2021/05/18 06:55:31;;;;;;;3.47;0.85;;;384.90;2073.60;;;;;;4805959;29;20104;-69
2021/05/18 06:58:16;;;;;;;1.95;0.85;;;409.70;2099.20;;;;;;4804289;29;20094;-64
2021/05/18 07:00:42;;;;;;;1.20;0.80;;;409.90;2073.60;;;;;;4804320;29;20057;-66
2021/05/18 07:03:12;;;;;;;2.65;0.95;;;410.10;2022.40;;;;;;4804380;29;20142;-63
2021/05/18 07:10:43;;;;;;;1.30;0.70;;;410.20;1971.20;;;;;;4826299;29;20033;-62
2021/05/18 07:13:10;;;;;;;1.58;0.70;;;410.40;1996.80;;;;;;4822106;29;20524;-62
2021/05/18 07:15:38;;;;;;;2.47;0.73;;;435.20;1996.80;;;;;;4822145;29;20034;-62
2021/05/18 07:18:04;;;;;;;3.20;0.80;;;435.40;2022.40;;;;;;4822257;29;20470;-63
2021/05/18 07:20:31;;;;;;;1.17;0.70;;;435.60;1971.20;;;;;;4858925;29;20456;-64
2021/05/18 07:23:00;;;;;;;1.85;0.70;;;435.70;1868.80;;;;;;4878338;29;20029;-63
2021/05/18 07:25:26;;;;;;;2.53;0.70;;;435.90;1894.40;;;;;;4879543;29;20033;-64
2021/05/18 07:27:51;;;;;;;1.30;0.70;;;436.10;1894.40;;;;;;4880497;29;20100;-63
2021/05/18 07:30:18;;;;;;;1.65;0.77;;;436.10;1792.00;;;;;;4880488;29;20111;-64
2021/05/18 07:32:43;;;;;;;2.20;0.75;;;436.00;1766.40;;;;;;4880030;29;20542;-64
2021/05/18 07:35:11;;;;;;;2.75;1.10;;;460.80;1792.00;;;;;;4880029;29;20037;-64
2021/05/18 07:37:38;;;;;;;1.40;0.82;;;460.90;1792.00;;;;;;4879815;29;20033;-64
2021/05/18 07:40:05;;;;;;;2.72;0.82;;;461.00;1868.80;;;;;;4878908;29;20044;-64
2021/05/18 07:42:31;;;;;;;1.95;0.80;;;461.20;1792.00;;;;;;4878403;29;20033;-63
2021/05/18 07:44:57;;;;;;;2.13;0.75;;;461.10;1715.20;;;;;;4879520;29;20040;-63
2021/05/18 07:47:27;;;;;;;2.75;0.90;;;461.30;1817.60;;;;;;4880133;29;20033;-63
2021/05/18 07:49:59;;;;;;;3.03;1.20;;;461.50;1766.40;;;;;;4879214;29;20419;-62
2021/05/18 08:00:40;;;;;;;2.97;0.85;;;486.90;1664.00;;;;;;4878361;29;20060;-63
2021/05/18 08:05:52;;;;;;;2.65;1.00;;;486.90;1612.80;;;;;;4876886;29;20112;-62
2021/05/18 08:08:18;;;;;;;1.60;0.73;;;487.00;1561.60;;;;;;4878183;29;20074;-63
2021/05/18 08:10:58;;;;;;;1.50;0.80;;;487.00;1510.40;;;;;;4878227;29;20029;-63
2021/05/18 08:13:24;;;;;;;2.50;0.90;;;487.00;1459.20;;;;;;4862145;29;20054;-63
2021/05/18 10:35:38;;;;;;;3.40;0.60;;;614.50;1024.00;;;;;;4877720;29;20160;-64
2021/05/18 10:38:07;;;;;;;3.85;0.60;;;614.40;972.80;;;;;;4881261;29;20116;-64
2021/05/18 10:40:34;;;;;;;1.80;0.88;;;614.50;998.40;;;;;;4864420;29;20433;-64
2021/05/18 10:43:21;;;;;;;3.22;0.93;;;614.70;972.80;;;;;;4879025;29;20037;-64
2021/05/18 10:45:53;;;;;;;2.72;0.93;;;614.70;947.20;;;;;;4870258;29;20030;-64
2021/05/18 10:48:27;;;;;;;1.98;0.90;;;614.90;947.20;;;;;;4877331;29;20028;-64
2021/05/18 10:50:53;;;;;;;1.83;0.60;;;615.00;947.20;;;;;;4877002;29;20029;-64
2021/05/18 10:53:27;;;;;;;1.98;0.60;;;640.00;896.00;;;;;;4876912;29;20025;-64
2021/05/18 10:56:06;;;;;;;3.20;1.13;;;640.20;896.00;;;;;;4877318;29;20119;-65
2021/05/18 10:58:32;;;;;;;5.90;1.27;;;640.20;921.60;;;;;;4875518;29;20435;-64
2021/05/18 11:00:59;;;;;;;3.85;1.15;;;615.20;844.80;;;;;;4860306;29;20037;-64
2021/05/18 11:03:24;;;;;;;3.25;0.70;;;614.90;896.00;;;;;;4879509;29;20025;-64
2021/05/18 11:05:53;;;;;;;3.05;1.17;;;614.70;921.60;;;;;;4879565;29;20120;-64
2021/05/18 11:08:19;;;;;;;1.92;0.90;;;614.90;947.20;;;;;;4874818;29;20044;-63
2021/05/18 11:10:46;;;;;;;12.40;1.10;;;615.10;947.20;;;;;;4890555;29;20376;-64
2021/05/18 11:13:13;;;;;;;2.05;0.80;;;615.10;921.60;;;;;;4889411;29;20029;-64
2021/05/18 11:15:38;;;;;;;1.38;0.50;;;640.10;921.60;;;;;;4893983;29;20532;-63
2021/05/18 11:18:05;;;;;;;2.45;0.60;;;640.00;870.40;;;;;;4892771;29;20025;-65
2021/05/18 11:26:08;;;;;;;2.47;0.70;;;640.20;844.80;;;;;;4891717;29;20100;-63
2021/05/18 11:28:40;;;;;;;1.40;0.43;;;640.00;844.80;;;;;;4892583;29;20420;-62
2021/05/18 11:31:08;;;;;;;2.45;0.73;;;640.00;844.80;;;;;;4893217;29;20432;-63
2021/05/18 11:33:42;;;;;;;0.82;0.38;;;640.40;844.80;;;;;;4894122;29;20020;-63
2021/05/18 11:36:09;;;;;;;2.57;0.40;;;640.50;844.80;;;;;;4894784;29;20088;-62
2021/05/18 11:38:55;;;;;;;1.25;0.50;;;640.60;793.60;;;;;;4893481;29;20305;-64
2021/05/18 11:41:29;;;;;;;1.38;0.60;;;640.50;768.00;;;;;;4885086;29;20036;-63
2021/05/18 11:43:57;;;;;;;1.05;0.50;;;640.40;793.60;;;;;;4891348;29;20029;-63
2021/05/18 11:46:24;;;;;;;1.75;0.30;;;640.40;819.20;;;;;;4893471;29;20025;-62
2021/05/18 11:49:00;;;;;;;0.50;0.40;;;640.40;768.00;;;;;;4894398;29;20032;-63
2021/05/18 11:51:49;;;;;;;1.23;0.40;;;640.30;742.40;;;;;;4894812;29;20036;-62
2021/05/18 11:54:18;;;;;;;0.70;0.40;;;640.30;793.60;;;;;;4786318;30;20042;-62
2021/05/18 11:56:45;;;;;;;0.63;0.40;;;640.30;819.20;;;;;;4785945;30;20091;-63
2021/05/18 11:59:18;;;;;;;0.85;0.40;;;640.50;819.20;;;;;;4775522;29;20545;-63
2021/05/18 12:01:43;;;;;;;1.80;0.43;;;640.50;768.00;;;;;;4783419;29;20596;-62
2021/05/18 12:04:12;;;;;;;2.90;0.50;;;640.80;793.60;;;;;;4783468;30;20036;-62
2021/05/18 12:06:41;;;;;;;1.08;0.40;;;640.60;768.00;;;;;;4780744;30;20050;-62
2021/05/18 12:09:13;;;;;;;2.10;0.60;;;640.10;793.60;;;;;;4783449;30;20415;-64
2021/05/18 12:11:40;;;;;;;1.88;0.60;;;640.50;793.60;;;;;;4781130;29;20146;-63
2021/05/18 12:14:10;;;;;;;2.13;0.40;;;640.80;793.60;;;;;;4782096;30;20043;-63
2021/05/18 12:16:45;;;;;;;2.58;0.60;;;640.50;793.60;;;;;;4782394;29;20039;-64
2021/05/18 12:19:13;;;;;;;0.70;0.40;;;640.30;793.60;;;;;;4783360;29;20126;-63
2021/05/18 12:21:39;;;;;;;0.70;0.50;;;640.10;819.20;;;;;;4786029;29;20039;-63
2021/05/18 12:24:17;;;;;;;0.68;0.40;;;640.00;819.20;;;;;;4785558;30;20075;-63
2021/05/18 12:26:57;;;;;;;1.48;0.40;;;640.20;819.20;;;;;;4783928;29;20052;-63
2021/05/18 12:29:35;;;;;;;0.88;0.55;;;640.30;870.40;;;;;;4782464;29;20389;-62
2021/05/18 12:32:18;;;;;;;1.45;0.50;;;640.10;819.20;;;;;;4873893;29;20043;-64
2021/05/18 12:34:51;;;;;;;1.05;0.30;;;640.10;793.60;;;;;;4891065;29;20412;-63
2021/05/18 12:37:29;;;;;;;2.38;0.70;;;640.00;819.20;;;;;;4887043;29;20033;-63
2021/05/18 12:39:55;;;;;;;2.33;0.68;;;640.00;819.20;;;;;;4881328;29;20033;-64
2021/05/18 12:42:29;;;;;;;2.85;0.75;;;615.20;844.80;;;;;;4890250;29;20048;-64
2021/05/18 12:44:59;;;;;;;2.55;1.00;;;614.90;844.80;;;;;;4890819;29;20463;-64
2021/05/18 12:47:32;;;;;;;1.30;0.50;;;615.20;844.80;;;;;;4889123;29;20028;-63
2021/05/18 12:49:58;;;;;;;2.55;0.60;;;640.20;819.20;;;;;;4895349;29;20083;-64
2021/05/18 12:52:36;;;;;;;3.63;0.73;;;640.70;819.20;;;;;;4895354;29;20477;-64
2021/05/18 12:55:12;;;;;;;2.30;0.95;;;640.90;819.20;;;;;;4903752;29;20036;-63
2021/05/18 12:57:48;;;;;;;2.83;0.50;;;640.80;819.20;;;;;;4888097;29;20020;-63
2021/05/18 13:00:16;;;;;;;2.47;0.68;;;640.80;819.20;;;;;;4886487;29;20025;-63
2021/05/18 13:02:46;;;;;;;3.42;0.70;;;665.60;819.20;;;;;;4892804;29;20053;-64
2021/05/18 13:05:29;;;;;;;0.90;0.40;;;665.70;793.60;;;;;;4893044;29;20028;-62
2021/05/18 13:08:06;;;;;;;1.50;0.50;;;665.60;819.20;;;;;;4895160;29;20495;-63
2021/05/18 13:10:44;;;;;;;1.17;0.43;;;640.80;768.00;;;;;;4914395;29;20044;-64
2021/05/18 13:13:10;;;;;;;2.88;0.47;;;615.30;844.80;;;;;;4895347;29;20486;-62
2021/05/18 13:15:36;;;;;;;0.77;0.45;;;614.90;844.80;;;;;;4895204;29;20040;-63
2021/05/18 13:18:05;;;;;;;0.65;0.40;;;614.80;870.40;;;;;;4895612;29;20562;-63
2021/05/18 13:20:51;;;;;;;2.08;0.60;;;614.70;921.60;;;;;;4895962;29;20036;-63
2021/05/18 13:28:47;;;;;;;1.08;0.50;;;589.70;896.00;;;;;;4890859;29;20546;-63
2021/05/18 13:31:13;;;;;;;0.60;0.40;;;589.60;921.60;;;;;;4891447;29;20028;-62
2021/05/18 13:33:41;;;;;;;1.30;0.60;;;589.30;947.20;;;;;;4890326;29;20033;-63
2021/05/18 13:36:07;;;;;;;1.33;0.50;;;589.20;972.80;;;;;;4891891;29;20032;-62
2021/05/18 13:38:34;;;;;;;1.30;0.50;;;589.00;972.80;;;;;;4894214;29;20051;-63
2021/05/18 13:41:01;;;;;;;4.68;0.60;;;588.90;972.80;;;;;;4891917;29;20127;-64
2021/05/18 13:43:27;;;;;;;3.38;0.50;;;589.20;947.20;;;;;;4891862;29;20032;-64
2021/05/18 13:45:53;;;;;;;1.27;0.50;;;589.10;972.80;;;;;;4891866;29;20033;-63
2021/05/18 13:48:18;;;;;;;4.10;0.60;;;589.10;947.20;;;;;;4892040;29;20024;-63
2021/05/18 13:50:44;;;;;;;1.23;0.50;;;614.90;896.00;;;;;;4893263;29;20035;-63
2021/05/18 13:53:10;;;;;;;2.83;0.32;;;691.30;768.00;;;;;;4894044;29;20024;-63
2021/05/18 13:55:36;;;;;;;1.45;0.70;;;665.90;793.60;;;;;;4895238;29;20044;-64
2021/05/18 13:58:02;;;;;;;2.55;0.57;;;717.70;716.80;;;;;;4894659;29;20499;-64
2021/05/18 14:00:28;;;;;;;1.75;0.60;;;794.40;614.40;;;;;;4904678;29;20037;-62
2021/05/18 14:02:54;;;;;;;2.45;0.80;;;819.70;563.20;;;;;;4892762;29;20082;-62
2021/05/18 14:05:23;;;;;;;1.15;0.73;;;870.40;486.40;;;;;;4896075;29;20115;-64
2021/05/18 14:11:06;;;;;;;1.42;0.40;;;819.40;537.60;;;;;;4891800;29;20487;-63
2021/05/18 14:13:41;;;;;;;1.08;0.40;;;743.00;614.40;;;;;;4891737;29;20139;-64
2021/05/18 14:16:09;;;;;;;0.60;0.40;;;742.40;640.00;;;;;;4891357;29;20024;-63
2021/05/18 14:18:36;;;;;;;1.77;0.80;;;692.10;665.60;;;;;;4889143;29;20036;-64
2021/05/18 14:21:05;;;;;;;1.27;0.60;;;691.40;716.80;;;;;;4890367;29;20045;-64
2021/05/18 14:23:58;;;;;;;0.88;0.55;;;691.20;716.80;;;;;;4890460;29;20080;-64
2021/05/18 14:26:26;;;;;;;0.57;0.40;;;691.30;716.80;;;;;;4889893;29;20037;-64
2021/05/18 14:28:52;;;;;;;1.20;0.50;;;666.40;742.40;;;;;;4887885;29;20048;-64
2021/05/18 14:31:18;;;;;;;1.60;0.52;;;666.30;742.40;;;;;;4886536;29;20794;-66
2021/05/18 14:33:44;;;;;;;0.73;0.40;;;666.50;716.80;;;;;;4892778;29;20044;-65
2021/05/18 14:36:12;;;;;;;4.55;0.82;;;691.20;716.80;;;;;;4894833;29;20036;-63
2021/05/18 14:38:40;;;;;;;1.17;0.60;;;691.20;716.80;;;;;;4894683;29;20040;-63
2021/05/18 14:46:17;;;;;;;1.95;0.85;;;665.60;742.40;;;;;;4900848;29;20431;-63
2021/05/18 14:54:33;;;;;;;;;;;;;;;;;;;;;
2021/05/18 14:56:39;;;;;;;1.45;0.30;;;640.60;742.40;;;;;;4899533;29;20032;-66
2021/05/18 14:59:04;;;;;;;1.58;0.30;;;640.50;742.40;;;;;;4898600;29;20036;-65
2021/05/18 15:01:30;;;;;;;2.30;0.65;;;640.30;768.00;;;;;;4903736;29;20040;-65
2021/05/18 15:03:56;;;;;;;1.25;0.30;;;640.30;768.00;;;;;;4900952;29;20032;-66
2021/05/18 15:06:22;;;;;;;1.25;0.30;;;640.10;742.40;;;;;;4906228;29;20111;-66
2021/05/18 15:08:47;;;;;;;1.17;0.60;;;640.10;768.00;;;;;;4919025;29;20107;-66
2021/05/18 15:11:13;;;;;;;2.28;0.47;;;640.10;793.60;;;;;;4918944;29;20032;-65
2021/05/18 15:13:39;;;;;;;0.47;0.40;;;640.10;793.60;;;;;;4918651;29;20029;-66
2021/05/18 15:16:05;;;;;;;0.82;0.40;;;640.10;768.00;;;;;;4890586;29;20056;-66
2021/05/18 15:18:32;;;;;;;4.68;0.50;;;640.10;793.60;;;;;;4883089;29;20372;-66
2021/05/18 15:20:59;;;;;;;1.20;0.40;;;640.10;793.60;;;;;;4898511;29;20036;-65
2021/05/18 15:23:27;;;;;;;1.95;0.63;;;640.00;793.60;;;;;;4897933;29;20028;-66
2021/05/18 15:25:53;;;;;;;1.15;0.40;;;640.00;793.60;;;;;;4899840;29;20115;-65
2021/05/18 15:28:18;;;;;;;2.80;0.30;;;615.20;793.60;;;;;;4899487;29;20080;-65
2021/05/18 15:30:45;;;;;;;0.80;0.40;;;614.80;793.60;;;;;;4900033;29;20035;-65
2021/05/18 15:33:11;;;;;;;0.52;0.40;;;614.80;819.20;;;;;;4897098;29;20509;-65
2021/05/18 15:35:37;;;;;;;0.75;0.40;;;614.70;844.80;;;;;;4896843;29;20040;-65
2021/05/18 15:38:04;;;;;;;0.90;0.60;;;614.70;844.80;;;;;;4898582;29;20036;-65
2021/05/18 15:40:30;;;;;;;1.75;1.00;;;614.60;844.80;;;;;;4898456;29;20124;-65
2021/05/18 15:42:56;;;;;;;2.50;1.05;;;614.50;844.80;;;;;;4897843;29;20032;-65
2021/05/18 15:45:22;;;;;;;3.42;0.60;;;614.50;819.20;;;;;;4896206;29;20036;-64
2021/05/18 15:47:48;;;;;;;2.63;1.20;;;614.50;844.80;;;;;;4895730;29;20029;-64
2021/05/18 15:50:15;;;;;;;3.05;0.70;;;614.60;819.20;;;;;;4896203;29;20029;-63
2021/05/18 15:52:41;;;;;;;2.72;0.73;;;614.60;819.20;;;;;;4889490;29;20033;-63
2021/05/18 15:55:08;;;;;;;2.78;0.55;;;614.50;819.20;;;;;;4895571;29;20444;-63
2021/05/18 15:57:33;;;;;;;2.83;0.82;;;614.40;844.80;;;;;;4896532;29;20067;-63
2021/05/18 15:59:59;;;;;;;2.03;0.60;;;614.40;844.80;;;;;;4896205;29;20024;-63
2021/05/18 16:02:25;;;;;;;0.80;0.40;;;589.70;819.20;;;;;;4895648;29;20465;-63
2021/05/18 16:04:51;;;;;;;1.25;0.32;;;589.70;819.20;;;;;;4896702;29;20028;-64
2021/05/18 16:07:18;;;;;;;0.68;0.38;;;589.60;819.20;;;;;;4897388;29;20531;-64
2021/05/18 16:09:44;;;;;;;0.70;0.35;;;589.60;819.20;;;;;;4884489;29;20150;-64
2021/05/18 16:12:11;;;;;;;0.60;0.40;;;589.50;844.80;;;;;;4880769;29;20045;-62
2021/05/18 16:14:37;;;;;;;1.75;0.40;;;589.50;844.80;;;;;;4880280;29;20104;-63
2021/05/18 16:17:04;;;;;;;1.00;0.50;;;589.40;870.40;;;;;;4880735;29;20112;-65
2021/05/18 16:19:30;;;;;;;3.55;0.50;;;589.40;870.40;;;;;;4880675;29;20037;-64
2021/05/18 16:21:56;;;;;;;0.98;0.40;;;589.30;870.40;;;;;;4879635;29;20033;-64
2021/05/18 16:24:24;;;;;;;1.80;0.40;;;589.20;896.00;;;;;;4880715;29;20055;-63
2021/05/18 16:26:50;;;;;;;0.80;0.30;;;589.00;870.40;;;;;;4878058;29;20498;-63
2021/05/18 16:29:16;;;;;;;1.58;0.52;;;588.90;870.40;;;;;;4861708;29;20053;-63
2021/05/18 16:31:43;;;;;;;0.40;0.30;;;588.80;921.60;;;;;;4861872;29;20044;-63
2021/05/18 16:34:08;;;;;;;1.05;0.50;;;564.10;896.00;;;;;;4845165;29;20030;-63
2021/05/18 16:36:35;;;;;;;2.80;0.60;;;564.10;896.00;;;;;;4871939;29;20032;-63
2021/05/18 16:39:01;;;;;;;1.45;0.60;;;564.00;921.60;;;;;;4878765;29;20037;-63
2021/05/18 16:41:27;;;;;;;1.08;0.50;;;564.00;947.20;;;;;;4878139;29;20033;-63
2021/05/18 16:43:53;;;;;;;1.10;0.47;;;563.90;921.60;;;;;;4878904;29;20028;-63
2021/05/18 16:46:19;;;;;;;4.10;0.52;;;563.90;947.20;;;;;;4878706;29;20041;-62
2021/05/18 16:48:45;;;;;;;1.27;0.40;;;563.70;947.20;;;;;;4877860;29;20025;-63
2021/05/18 16:51:10;;;;;;;0.68;0.25;;;563.70;947.20;;;;;;4878221;29;20523;-64
2021/05/18 16:53:37;;;;;;;0.85;0.30;;;563.60;921.60;;;;;;4878377;29;20065;-63
2021/05/18 16:56:07;;;;;;;0.63;0.40;;;563.50;947.20;;;;;;4865352;29;20029;-62
2021/05/18 16:58:33;;;;;;;1.40;0.32;;;563.50;972.80;;;;;;4875017;29;20028;-62
2021/05/18 17:00:59;;;;;;;0.93;0.40;;;563.40;947.20;;;;;;4876574;29;20087;-63
2021/05/18 17:03:25;;;;;;;2.85;0.60;;;563.30;972.80;;;;;;4875440;29;20036;-62
2021/05/18 17:05:52;;;;;;;3.03;0.63;;;563.30;998.40;;;;;;4878261;29;20033;-61
2021/05/18 17:08:18;;;;;;;2.03;0.60;;;538.50;972.80;;;;;;4881966;29;20491;-63
2021/05/18 17:10:45;;;;;;;1.83;0.50;;;538.50;972.80;;;;;;4898438;29;20025;-61
2021/05/18 17:13:11;;;;;;;0.88;0.45;;;538.50;1024.00;;;;;;4897541;29;20037;-63
2021/05/18 17:15:37;;;;;;;1.58;0.50;;;538.40;998.40;;;;;;4895635;29;20627;-63
2021/05/18 17:18:04;;;;;;;2.90;0.60;;;538.40;998.40;;;;;;4896445;29;20119;-63
2021/05/18 17:20:32;;;;;;;3.15;0.57;;;538.40;998.40;;;;;;4895229;29;20039;-62
2021/05/18 17:22:58;;;;;;;1.42;0.60;;;538.30;1024.00;;;;;;4894393;29;20146;-62
2021/05/18 17:25:24;;;;;;;2.35;0.50;;;538.30;1024.00;;;;;;4896952;29;20084;-61
2021/05/18 17:27:50;;;;;;;1.02;0.40;;;538.20;1024.00;;;;;;4896683;29;20088;-62
2021/05/18 17:30:25;;;;;;;3.03;0.60;;;538.10;1049.60;;;;;;4896888;29;20041;-62
2021/05/18 17:32:52;;;;;;;3.72;0.73;;;538.00;1049.60;;;;;;4896591;29;20032;-62
2021/05/18 17:35:18;;;;;;;2.47;0.93;;;537.90;1049.60;;;;;;4896725;29;20029;-61
2021/05/18 17:37:44;;;;;;;24.60;4.50;;;538.10;1075.20;;;;;;4896341;29;20115;-61
2021/05/18 17:40:12;;;;;;;9.65;1.10;;;537.80;1075.20;;;;;;4896887;29;20490;-61
2021/05/18 17:42:38;;;;;;;4.85;1.50;;;537.80;1100.80;;;;;;4896781;29;20041;-62
2021/05/18 17:45:05;;;;;;;11.02;4.07;;;537.70;1100.80;;;;;;4896411;29;20024;-61
2021/05/18 17:47:32;;;;;;;20.63;5.07;;;537.60;1100.80;;;;;;4896331;29;20116;-62
2021/05/18 17:49:58;;;;;;;44.20;8.27;;;512.90;1100.80;;;;;;4896325;29;20028;-62
2021/05/18 17:52:25;;;;;;;84.75;16.05;;;512.80;1100.80;;;;;;4879673;29;20102;-61
2021/05/18 17:54:50;;;;;;;9.07;3.33;;;512.80;1126.40;;;;;;4895088;29;20021;-61
2021/05/18 17:57:16;;;;;;;6.63;2.45;;;512.70;1100.80;;;;;;4896035;29;20043;-62
2021/05/18 17:59:42;;;;;;;6.07;2.10;;;512.60;1152.00;;;;;;4896083;29;20472;-61
2021/05/18 18:02:09;;;;;;;8.55;2.60;;;512.50;1152.00;;;;;;4896458;29;20055;-61